createdAt,value
2023-02-24T00:00:32.427Z,33.53
2023-02-24T00:03:06.033Z,29.67
2023-02-24T00:05:36.084Z,29.10
2023-02-24T00:08:04.270Z,27.00
2023-02-24T00:10:34.058Z,29.27
2023-02-24T00:13:02.299Z,31.40
2023-02-24T00:15:30.509Z,33.33
2023-02-24T00:17:59.340Z,35.13
2023-02-24T00:20:27.509Z,30.87
2023-02-24T00:22:55.619Z,28.17
2023-02-24T00:25:23.785Z,34.40
2023-02-24T00:27:55.650Z,28.97
2023-02-24T00:30:24.085Z,29.57
2023-02-24T00:32:52.313Z,32.37
2023-02-24T00:35:20.477Z,29.23
2023-02-24T00:37:51.336Z,31.07
2023-02-24T00:40:23.380Z,26.40
2023-02-24T00:42:54.035Z,31.97
2023-02-24T00:45:22.409Z,30.47
2023-02-24T00:47:50.534Z,35.90
2023-02-24T00:50:18.984Z,30.87
2023-02-24T00:52:47.104Z,28.87
2023-02-24T00:55:15.498Z,31.50
2023-02-24T00:57:45.259Z,27.90
2023-02-24T01:00:16.620Z,29.53
2023-02-24T01:02:46.070Z,30.07
2023-02-24T01:05:15.278Z,32.93
2023-02-24T01:07:43.362Z,26.83
2023-02-24T01:10:12.967Z,30.63
2023-02-24T01:12:49.669Z,28.67
2023-02-24T01:15:22.275Z,29.60
2023-02-24T01:17:50.452Z,38.17
2023-02-24T01:20:19.745Z,29.53
2023-02-24T01:22:50.117Z,29.37
2023-02-24T01:25:20.237Z,32.20
2023-02-24T01:27:48.461Z,24.80
2023-02-24T01:30:18.390Z,37.73
2023-02-24T01:32:48.628Z,27.07
2023-02-24T01:35:17.669Z,29.53
2023-02-24T01:37:46.309Z,32.20
2023-02-24T01:40:21.670Z,25.57
2023-02-24T01:42:51.735Z,28.23
2023-02-24T01:45:25.133Z,35.60
2023-02-24T01:47:58.480Z,30.70
2023-02-24T01:50:27.769Z,31.90
2023-02-24T01:52:58.862Z,29.20
2023-02-24T01:55:32.178Z,32.20
2023-02-24T01:58:05.965Z,31.23
2023-02-24T02:00:38.311Z,35.60
2023-02-24T02:03:24.191Z,32.70
2023-02-24T02:05:56.117Z,28.27
2023-02-24T02:08:25.932Z,37.33
2023-02-24T02:10:58.885Z,31.77
2023-02-24T02:13:28.358Z,32.40
2023-02-24T02:16:13.670Z,35.57
2023-02-24T02:18:56.692Z,37.03
2023-02-24T02:22:13.826Z,31.80
2023-02-24T02:24:49.703Z,28.37
2023-02-24T02:27:47.638Z,34.30
2023-02-24T02:30:48.527Z,30.77
2023-02-24T02:33:56.225Z,30.70
2023-02-24T02:36:33.180Z,23.30
2023-02-24T02:39:12.518Z,27.33
2023-02-24T02:41:50.809Z,27.53
2023-02-24T02:44:25.032Z,23.80
2023-02-24T02:46:59.259Z,26.17
2023-02-24T02:49:33.280Z,26.53
2023-02-24T02:52:13.735Z,26.83
2023-02-24T02:54:49.759Z,25.23
2023-02-24T02:57:21.499Z,24.50
2023-02-24T02:59:57.460Z,15.00
2023-02-24T03:02:30.598Z,17.40
2023-02-24T03:05:04.118Z,22.37
2023-02-24T03:07:40.481Z,20.10
2023-02-24T03:10:17.647Z,21.37
2023-02-24T03:12:49.076Z,20.20
2023-02-24T03:15:21.061Z,22.63
2023-02-24T03:17:57.317Z,18.17
2023-02-24T03:20:32.762Z,27.67
2023-02-24T03:23:04.985Z,21.40
2023-02-24T03:25:44.513Z,19.10
2023-02-24T03:28:19.776Z,18.87
2023-02-24T03:30:55.275Z,30.80
2023-02-24T03:33:29.809Z,23.40
2023-02-24T03:36:01.789Z,24.10
2023-02-24T03:38:38.338Z,17.33
2023-02-24T03:41:11.298Z,20.40
2023-02-24T03:43:44.959Z,18.80
2023-02-24T03:46:15.070Z,22.00
2023-02-24T03:48:48.737Z,22.17
2023-02-24T03:51:21.390Z,23.07
2023-02-24T03:54:05.738Z,17.37
2023-02-24T03:56:47.902Z,25.30
2023-02-24T03:59:28.040Z,21.50
2023-02-24T04:02:02.833Z,19.20
2023-02-24T04:04:43.285Z,29.03
2023-02-24T04:07:36.565Z,32.13
2023-02-24T04:10:12.748Z,25.07
2023-02-24T04:12:51.626Z,27.73
2023-02-24T04:15:25.731Z,26.60
2023-02-24T04:17:58.583Z,30.80
2023-02-24T04:20:33.507Z,27.77
2023-02-24T04:23:08.671Z,20.43
2023-02-24T04:25:41.499Z,20.40
2023-02-24T04:28:11.257Z,25.30
2023-02-24T04:30:46.903Z,18.10
2023-02-24T04:33:15.176Z,16.63
2023-02-24T04:35:46.484Z,13.97
2023-02-24T04:38:14.729Z,32.43
2023-02-24T04:40:44.389Z,19.27
2023-02-24T04:43:13.045Z,17.53
2023-02-24T04:45:41.239Z,20.50
2023-02-24T04:48:12.993Z,14.40
2023-02-24T04:50:43.292Z,18.07
2023-02-24T04:53:14.713Z,13.50
2023-02-24T04:55:48.793Z,13.67
2023-02-24T04:58:20.212Z,26.90
2023-02-24T05:00:49.495Z,20.27
2023-02-24T05:03:18.367Z,22.50
2023-02-24T05:05:52.016Z,24.77
2023-02-24T05:08:21.011Z,26.47
2023-02-24T05:10:51.861Z,30.97
2023-02-24T05:13:24.411Z,31.13
2023-02-24T05:15:52.785Z,33.80
2023-02-24T05:18:23.839Z,52.97
2023-02-24T05:21:10.866Z,48.57
2023-02-24T05:23:44.174Z,53.03
2023-02-24T05:26:16.976Z,46.03
2023-02-24T05:28:49.189Z,45.77
2023-02-24T05:31:19.957Z,41.40
2023-02-24T05:33:50.512Z,44.40
2023-02-24T05:36:20.100Z,54.00
2023-02-24T05:38:50.277Z,51.87
2023-02-24T05:41:20.813Z,49.53
2023-02-24T05:43:54.838Z,53.77
2023-02-24T05:46:28.216Z,60.27
2023-02-24T05:48:57.969Z,51.93
2023-02-24T05:51:26.838Z,57.30
2023-02-24T05:53:55.963Z,55.80
2023-02-24T05:56:27.372Z,60.17
2023-02-24T05:59:02.052Z,55.53
2023-02-24T06:01:31.407Z,55.77
2023-02-24T06:04:05.711Z,57.77
2023-02-24T06:06:38.801Z,61.03
2023-02-24T06:09:10.762Z,48.37
2023-02-24T06:11:41.935Z,63.40
2023-02-24T06:14:11.283Z,67.23
2023-02-24T06:16:41.182Z,60.70
2023-02-24T06:19:11.506Z,68.40
2023-02-24T06:21:41.766Z,67.90
2023-02-24T06:24:14.513Z,50.03
2023-02-24T06:26:44.380Z,66.90
2023-02-24T06:29:14.927Z,52.40
2023-02-24T06:31:44.104Z,55.40
2023-02-24T06:34:13.334Z,56.97
2023-02-24T06:36:43.148Z,55.30
2023-02-24T06:39:14.479Z,59.40
2023-02-24T06:41:44.187Z,58.30
2023-02-24T06:44:13.810Z,49.03
2023-02-24T06:46:42.308Z,54.30
2023-02-24T06:49:11.581Z,46.10
2023-02-24T06:51:39.887Z,45.20
2023-02-24T06:54:08.213Z,49.60
2023-02-24T06:56:39.416Z,53.67
2023-02-24T06:59:12.012Z,52.03
2023-02-24T07:01:45.128Z,53.70
2023-02-24T07:04:20.983Z,46.47
2023-02-24T07:06:52.526Z,65.87
2023-02-24T07:09:23.432Z,42.57
2023-02-24T07:11:53.341Z,46.90
2023-02-24T07:14:25.612Z,41.23
2023-02-24T07:16:55.485Z,51.77
2023-02-24T07:19:25.996Z,50.37
2023-02-24T07:22:00.315Z,42.07
2023-02-24T07:24:36.016Z,49.63
2023-02-24T07:27:06.396Z,42.97
2023-02-24T07:29:37.795Z,45.93
2023-02-24T07:32:08.728Z,39.70
2023-02-24T07:34:40.002Z,41.37
2023-02-24T07:37:09.662Z,41.33
2023-02-24T07:39:39.380Z,44.97
2023-02-24T07:42:09.340Z,45.43
2023-02-24T07:44:49.205Z,47.63
2023-02-24T07:47:17.731Z,34.83
2023-02-24T07:49:46.145Z,46.40
2023-02-24T07:52:14.374Z,41.77
2023-02-24T07:54:43.162Z,44.80
2023-02-24T07:57:14.227Z,45.70
2023-02-24T07:59:47.802Z,44.67
2023-02-24T08:02:18.543Z,38.57
2023-02-24T08:04:50.530Z,40.60
2023-02-24T08:07:24.826Z,50.90
2023-02-24T08:10:14.418Z,54.67
2023-02-24T08:12:43.801Z,39.77
2023-02-24T08:15:24.220Z,50.10
2023-02-24T08:17:59.551Z,39.83
2023-02-24T08:20:30.195Z,45.00
2023-02-24T08:22:58.510Z,43.33
2023-02-24T08:25:35.945Z,42.77
2023-02-24T08:28:09.504Z,53.30
2023-02-24T08:30:40.766Z,50.77
2023-02-24T08:33:15.851Z,52.60
2023-02-24T08:35:45.696Z,48.00
2023-02-24T08:38:16.636Z,47.03
2023-02-24T08:40:54.764Z,47.70
2023-02-24T08:43:33.225Z,56.30
2023-02-24T08:46:06.510Z,55.97
2023-02-24T08:48:38.888Z,57.27
2023-02-24T08:51:12.127Z,61.80
2023-02-24T08:53:41.493Z,53.13
2023-02-24T08:56:11.786Z,67.73
2023-02-24T08:58:47.672Z,50.10
2023-02-24T09:01:24.619Z,64.27
2023-02-24T09:03:57.178Z,53.57
2023-02-24T09:06:38.480Z,66.20
2023-02-24T09:09:21.134Z,64.80
2023-02-24T09:11:56.199Z,56.53
2023-02-24T09:14:28.815Z,59.63
2023-02-24T09:17:07.034Z,60.73
2023-02-24T09:20:11.417Z,61.10
2023-02-24T09:22:57.947Z,64.73
2023-02-24T09:25:40.869Z,59.40
2023-02-24T09:28:11.100Z,67.90
2023-02-24T09:30:51.557Z,58.73
2023-02-24T09:33:22.373Z,59.87
2023-02-24T09:36:02.862Z,61.73
2023-02-24T09:38:49.003Z,66.87
2023-02-24T09:41:31.969Z,60.60
2023-02-24T09:44:03.822Z,65.83
2023-02-24T09:46:42.626Z,74.30
2023-02-24T09:49:18.239Z,77.70
2023-02-24T09:51:57.906Z,77.70
2023-02-24T09:54:29.000Z,66.80
2023-02-24T09:57:08.566Z,76.20
2023-02-24T10:00:01.620Z,72.87
2023-02-24T10:02:45.470Z,74.03
2023-02-24T10:05:27.365Z,63.53
2023-02-24T10:08:00.542Z,66.73
2023-02-24T10:10:35.824Z,61.73
2023-02-24T10:13:14.868Z,73.43
2023-02-24T10:15:59.675Z,66.43
2023-02-24T10:18:31.730Z,64.57
2023-02-24T10:21:07.560Z,68.83
2023-02-24T10:23:56.568Z,74.83
2023-02-24T10:26:51.310Z,75.63
2023-02-24T10:29:40.436Z,68.67
2023-02-24T10:32:24.611Z,61.70
2023-02-24T10:34:53.560Z,73.90
2023-02-24T10:37:28.574Z,72.70
2023-02-24T10:40:00.756Z,64.97
2023-02-24T10:42:31.931Z,75.10
2023-02-24T10:45:18.098Z,67.80
2023-02-24T10:47:57.039Z,70.97
2023-02-24T10:50:31.936Z,67.67
2023-02-24T10:53:26.591Z,61.77
2023-02-24T10:56:15.325Z,78.00
2023-02-24T10:58:56.646Z,70.17
2023-02-24T11:01:40.986Z,79.23
2023-02-24T11:04:22.997Z,79.37
2023-02-24T11:06:55.830Z,69.97
2023-02-24T11:09:43.995Z,71.30
2023-02-24T11:12:38.571Z,70.57
2023-02-24T11:15:33.711Z,75.63
2023-02-24T11:18:02.179Z,76.13
2023-02-24T11:20:48.071Z,64.33
2023-02-24T11:23:21.225Z,63.00
2023-02-24T11:25:51.102Z,72.53
2023-02-24T11:28:35.087Z,60.93
2023-02-24T11:31:13.387Z,60.03
2023-02-24T11:33:47.448Z,60.37
2023-02-24T11:36:27.714Z,61.50
2023-02-24T11:39:18.770Z,77.60
2023-02-24T11:41:53.145Z,72.37
2023-02-24T11:44:29.110Z,64.90
2023-02-24T11:47:01.142Z,69.17
2023-02-24T11:49:33.181Z,65.47
2023-02-24T11:52:05.190Z,65.93
2023-02-24T11:54:39.919Z,74.13
2023-02-24T11:57:15.374Z,71.43
2023-02-24T11:59:48.115Z,75.40
2023-02-24T12:02:23.950Z,65.13
2023-02-24T12:04:59.693Z,81.60
2023-02-24T12:07:33.865Z,83.67
2023-02-24T12:10:16.625Z,70.57
2023-02-24T12:12:52.643Z,77.33
2023-02-24T12:15:26.564Z,82.50
2023-02-24T12:18:04.417Z,75.83
2023-02-24T12:20:38.375Z,92.60
2023-02-24T12:23:18.050Z,75.83
2023-02-24T12:26:09.136Z,79.80
2023-02-24T12:28:59.917Z,74.77
2023-02-24T12:31:39.020Z,94.90
2023-02-24T12:34:14.482Z,81.87
2023-02-24T12:37:00.355Z,73.70
2023-02-24T12:39:32.710Z,74.40
2023-02-24T12:42:12.357Z,78.80
2023-02-24T12:44:49.736Z,72.07
2023-02-24T12:47:26.831Z,92.63
2023-02-24T12:50:18.021Z,68.23
2023-02-24T12:52:57.633Z,67.50
2023-02-24T12:55:31.904Z,68.20
2023-02-24T12:58:08.253Z,73.63
2023-02-24T13:00:47.753Z,69.00
2023-02-24T13:03:32.871Z,70.90
2023-02-24T13:06:08.202Z,81.80
2023-02-24T13:08:48.194Z,72.80
2023-02-24T13:11:24.518Z,83.80
2023-02-24T13:14:01.478Z,77.10
2023-02-24T13:16:30.934Z,82.70
2023-02-24T13:19:18.941Z,75.37
2023-02-24T13:21:56.981Z,68.17
2023-02-24T13:24:27.581Z,69.70
2023-02-24T13:27:20.666Z,75.70
2023-02-24T13:29:50.874Z,72.13
2023-02-24T13:32:32.632Z,71.70
2023-02-24T13:35:05.418Z,60.00
2023-02-24T13:37:36.723Z,66.27
2023-02-24T13:40:23.355Z,67.50
2023-02-24T13:43:00.898Z,56.00
2023-02-24T13:45:30.956Z,64.47
2023-02-24T13:48:23.087Z,55.47
2023-02-24T13:51:08.281Z,57.50
2023-02-24T13:53:51.620Z,59.27
2023-02-24T13:56:30.065Z,56.33
2023-02-24T13:59:27.051Z,62.53
2023-02-24T14:02:00.703Z,64.00
2023-02-24T14:04:31.372Z,63.17
2023-02-24T14:07:03.833Z,56.90
2023-02-24T14:09:34.354Z,61.70
2023-02-24T14:12:05.554Z,68.70
2023-02-24T14:20:33.944Z,64.40
2023-02-24T14:23:04.063Z,56.57
2023-02-24T14:25:37.170Z,58.40
2023-02-24T14:28:05.794Z,67.17
2023-02-24T14:30:36.621Z,60.60
2023-02-24T14:33:07.324Z,57.93
2023-02-24T14:35:37.706Z,58.90
2023-02-24T14:38:07.399Z,55.90
2023-02-24T14:40:35.671Z,55.23
2023-02-24T14:43:04.219Z,50.23
2023-02-24T14:45:32.373Z,57.93
2023-02-24T14:48:00.478Z,63.13
2023-02-24T14:50:31.693Z,64.33
2023-02-24T14:53:06.062Z,64.03
2023-02-24T14:55:38.632Z,52.57
2023-02-24T14:58:14.963Z,57.80
2023-02-24T15:00:48.405Z,56.37
2023-02-24T15:03:21.273Z,56.30
2023-02-24T15:05:52.743Z,55.63
2023-02-24T15:08:32.739Z,53.73
2023-02-24T15:11:05.625Z,62.47
2023-02-24T15:13:39.341Z,55.83
2023-02-24T15:16:13.895Z,55.80
2023-02-24T15:18:43.741Z,54.57
2023-02-24T15:21:22.134Z,49.30
2023-02-24T15:23:50.529Z,52.33
2023-02-24T15:26:32.278Z,62.73
2023-02-24T15:29:02.411Z,56.40
2023-02-24T15:31:30.974Z,52.40
2023-02-24T15:34:01.086Z,45.33
2023-02-24T15:36:32.964Z,46.40
2023-02-24T15:39:04.421Z,50.73
2023-02-24T15:41:45.037Z,50.40
2023-02-24T15:44:27.763Z,64.10
2023-02-24T15:46:56.499Z,53.10
2023-02-24T15:49:24.944Z,51.27
2023-02-24T15:51:55.584Z,47.73
2023-02-24T15:54:31.605Z,49.47
2023-02-24T15:57:03.377Z,52.90
2023-02-24T15:59:31.910Z,44.97
2023-02-24T16:02:00.101Z,46.03
2023-02-24T16:04:28.290Z,46.60
2023-02-24T16:06:58.472Z,44.67
2023-02-24T16:09:33.834Z,52.97
2023-02-24T16:12:04.567Z,57.43
2023-02-24T16:14:33.794Z,45.10
2023-02-24T16:17:08.851Z,47.43
2023-02-24T16:19:38.071Z,50.60
2023-02-24T16:22:06.215Z,47.40
2023-02-24T16:24:34.456Z,48.77
2023-02-24T16:27:04.001Z,51.10
2023-02-24T16:29:32.186Z,49.70
2023-02-24T16:32:00.694Z,46.17
2023-02-24T16:34:29.083Z,46.50
2023-02-24T16:36:57.232Z,55.10
2023-02-24T16:39:25.293Z,42.77
2023-02-24T16:41:53.659Z,45.33
2023-02-24T16:44:23.428Z,51.53
2023-02-24T16:46:52.896Z,49.47
2023-02-24T16:49:22.264Z,50.13
2023-02-24T16:51:50.357Z,62.23
2023-02-24T16:54:21.897Z,55.77
2023-02-24T16:56:50.878Z,50.37
2023-02-24T16:59:18.980Z,50.93
2023-02-24T17:01:48.679Z,46.40
2023-02-24T17:04:16.874Z,47.80
2023-02-24T17:06:45.023Z,52.17
2023-02-24T17:09:15.554Z,54.17
2023-02-24T17:11:44.007Z,59.67
2023-02-24T17:14:17.234Z,60.47
2023-02-24T17:16:45.787Z,64.13
2023-02-24T17:19:15.362Z,55.77
2023-02-24T17:21:45.135Z,58.13
2023-02-24T17:24:16.718Z,57.30
2023-02-24T17:26:45.116Z,49.97
2023-02-24T17:29:14.772Z,50.67
2023-02-24T17:31:43.632Z,49.33
2023-02-24T17:34:12.154Z,51.30
2023-02-24T17:36:41.801Z,50.73
2023-02-24T17:39:10.261Z,45.10
2023-02-24T17:41:38.675Z,45.00
2023-02-24T17:44:06.840Z,43.47
2023-02-24T17:46:35.153Z,48.47
2023-02-24T17:49:05.022Z,38.83
2023-02-24T17:51:33.273Z,42.10
2023-02-24T17:54:06.224Z,36.73
2023-02-24T17:56:34.701Z,50.87
2023-02-24T17:59:03.146Z,44.10
2023-02-24T18:01:31.465Z,42.60
2023-02-24T18:03:59.761Z,47.40
2023-02-24T18:06:28.317Z,43.03
2023-02-24T18:08:56.576Z,43.53
2023-02-24T18:11:26.196Z,41.30
2023-02-24T18:13:56.741Z,38.97
2023-02-24T18:16:26.058Z,41.37
2023-02-24T18:18:54.532Z,43.87
2023-02-24T18:21:22.826Z,33.47
2023-02-24T18:23:51.271Z,34.70
2023-02-24T18:26:21.469Z,27.80
2023-02-24T18:28:53.931Z,28.90
2023-02-24T18:31:23.753Z,30.07
2023-02-24T18:33:52.502Z,30.63
2023-02-24T18:36:21.520Z,29.17
2023-02-24T18:38:50.117Z,28.70
2023-02-24T18:41:21.429Z,41.53
2023-02-24T18:43:52.445Z,45.20
2023-02-24T18:46:21.463Z,30.70
2023-02-24T18:48:51.126Z,29.30
2023-02-24T18:51:22.411Z,26.63
2023-02-24T18:53:52.772Z,34.53
2023-02-24T18:56:23.501Z,24.43
2023-02-24T18:58:56.491Z,24.60
2023-02-24T19:01:27.993Z,24.20
2023-02-24T19:03:56.532Z,24.97
2023-02-24T19:06:27.254Z,29.20
2023-02-24T19:08:59.053Z,31.33
2023-02-24T19:11:27.954Z,36.07
2023-02-24T19:13:57.549Z,38.00
2023-02-24T19:16:26.375Z,41.03
2023-02-24T19:18:56.609Z,30.07
2023-02-24T19:21:25.398Z,21.00
2023-02-24T19:23:53.980Z,31.27
2023-02-24T19:26:24.863Z,23.50
2023-02-24T19:28:53.346Z,28.53
2023-02-24T19:31:25.754Z,27.80
2023-02-24T19:33:54.393Z,27.03
2023-02-24T19:36:23.770Z,33.10
2023-02-24T19:38:52.391Z,24.93
2023-02-24T19:41:20.698Z,21.67
2023-02-24T19:43:49.208Z,20.63
2023-02-24T19:46:18.188Z,21.60
2023-02-24T19:48:48.528Z,26.10
2023-02-24T19:51:18.681Z,22.13
2023-02-24T19:53:47.178Z,20.47
2023-02-24T19:56:15.928Z,23.70
2023-02-24T19:58:44.215Z,21.63
2023-02-24T20:01:14.341Z,22.10
2023-02-24T20:03:44.184Z,20.33
2023-02-24T20:06:20.470Z,23.77
2023-02-24T20:08:49.209Z,18.20
2023-02-24T20:11:18.616Z,20.77
2023-02-24T20:13:47.725Z,22.37
2023-02-24T20:16:17.876Z,22.30
2023-02-24T20:18:46.800Z,24.00
2023-02-24T20:21:15.485Z,24.67
2023-02-24T20:23:45.022Z,24.40
2023-02-24T20:26:16.282Z,31.40
2023-02-24T20:28:44.670Z,31.13
2023-02-24T20:31:15.643Z,27.43
2023-02-24T20:33:45.142Z,22.40
2023-02-24T20:36:15.861Z,17.80
2023-02-24T20:38:45.520Z,22.80
2023-02-24T20:41:13.755Z,18.40
2023-02-24T20:43:42.001Z,20.10
2023-02-24T20:46:14.869Z,17.83
2023-02-24T20:48:43.314Z,24.27
2023-02-24T20:51:13.325Z,22.63
2023-02-24T20:53:56.011Z,24.60
2023-02-24T20:56:27.640Z,20.23
2023-02-24T20:58:59.939Z,28.63
2023-02-24T21:01:29.356Z,25.00
2023-02-24T21:03:58.005Z,21.60
2023-02-24T21:06:26.533Z,18.00
2023-02-24T21:08:55.381Z,22.17
2023-02-24T21:11:24.328Z,24.57
2023-02-24T21:13:54.599Z,25.07
2023-02-24T21:16:23.468Z,24.60
2023-02-24T21:18:53.287Z,26.70
2023-02-24T21:21:22.040Z,29.23
2023-02-24T21:23:51.206Z,23.43
2023-02-24T21:26:20.498Z,25.27
2023-02-24T21:28:49.546Z,24.73
2023-02-24T21:31:21.867Z,22.53
2023-02-24T21:33:53.946Z,24.13
2023-02-24T21:36:26.514Z,29.07
2023-02-24T21:38:55.420Z,23.13
2023-02-24T21:41:24.800Z,24.90
2023-02-24T21:43:55.574Z,23.50
2023-02-24T21:46:28.860Z,24.80
2023-02-24T21:48:58.246Z,25.97
2023-02-24T21:51:27.932Z,21.43
2023-02-24T21:53:57.098Z,31.57
2023-02-24T21:56:27.710Z,27.63
2023-02-24T21:58:59.093Z,22.57
2023-02-24T22:01:30.726Z,31.20
2023-02-24T22:04:01.402Z,23.43
2023-02-24T22:06:32.096Z,22.67
2023-02-24T22:09:00.968Z,24.00
2023-02-24T22:11:31.826Z,26.73
2023-02-24T22:14:00.264Z,25.90
2023-02-24T22:16:30.171Z,26.43
2023-02-24T22:18:58.622Z,23.47
2023-02-24T22:21:29.174Z,23.83
2023-02-24T22:23:59.382Z,26.60
2023-02-24T22:26:29.957Z,25.47
2023-02-24T22:28:59.056Z,26.30
2023-02-24T22:31:30.768Z,22.80
2023-02-24T22:33:59.915Z,28.13
2023-02-24T22:36:30.147Z,23.37
2023-02-24T22:38:59.630Z,24.73
2023-02-24T22:41:29.588Z,27.03
2023-02-24T22:43:57.776Z,28.00
2023-02-24T22:46:28.064Z,22.53
2023-02-24T22:48:58.458Z,26.17
2023-02-24T22:51:27.994Z,22.87
2023-02-24T22:53:56.778Z,21.57
2023-02-24T22:56:27.841Z,22.30
2023-02-24T22:58:56.630Z,20.83
2023-02-24T23:01:27.514Z,19.57
2023-02-24T23:03:57.217Z,28.00
2023-02-24T23:06:29.583Z,15.70
2023-02-24T23:08:59.202Z,26.47
2023-02-24T23:11:29.782Z,22.53
2023-02-24T23:13:59.620Z,18.83
2023-02-24T23:16:31.560Z,22.17
2023-02-24T23:19:05.673Z,17.90
2023-02-24T23:21:35.896Z,18.30
2023-02-24T23:24:04.834Z,16.03
2023-02-24T23:26:33.820Z,20.57
2023-02-24T23:29:02.216Z,15.53
2023-02-24T23:31:30.629Z,12.87
2023-02-24T23:34:01.619Z,12.67
2023-02-24T23:36:29.925Z,16.67
2023-02-24T23:38:58.102Z,15.40
2023-02-24T23:41:26.285Z,15.80
2023-02-24T23:43:54.913Z,17.23
2023-02-24T23:46:23.605Z,19.83
2023-02-24T23:48:52.871Z,15.50
2023-02-24T23:51:22.561Z,13.40
2023-02-24T23:53:50.952Z,13.90
2023-02-24T23:56:21.839Z,18.80
2023-02-24T23:58:51.971Z,11.63
